PIA302 OPKC-OPLA
Flight info
| Callsign | PIA302 |
|---|---|
| Flight time | N/A |
| Altitude | 35000 |
| Route | BADUL J112 MIMAL |
| Aircraft | A320/M-SDE3FGHIRWY/LB1 |
Departure
| Time | 2026-04-30 14:43 |
|---|---|
| Airport | Jinnah International Airport (OPKC) |
Arrival
| Time | N/A |
|---|---|
| Airport | Allama Iqbal International Airport (OPLA) |
| Time | Latitude | Longitude | Altitude | Speed | Heading |
|---|---|---|---|---|---|
| 2026-04-30 14:30 | 24.90236 | 67.16853 | 101 ft | 0 kts | 88° |
| 2026-04-30 14:31 | 24.90235 | 67.16842 | 101 ft | 3 kts | 86° |
| 2026-04-30 14:31 | 24.90234 | 67.16820 | 101 ft | 3 kts | 81° |
| 2026-04-30 14:32 | 24.90223 | 67.16778 | 100 ft | 3 kts | 53° |
| 2026-04-30 14:32 | 24.90211 | 67.16765 | 101 ft | 3 kts | 4° |
| 2026-04-30 14:32 | 24.90202 | 67.16766 | 100 ft | 1 kts | 344° |
| 2026-04-30 14:33 | 24.90200 | 67.16766 | 100 ft | 0 kts | 344° |
| 2026-04-30 14:36 | 24.90220 | 67.16760 | 76 ft | 4 kts | 344° |
| 2026-04-30 14:37 | 24.90243 | 67.16753 | 106 ft | 3 kts | 345° |
| 2026-04-30 14:37 | 24.90279 | 67.16742 | 101 ft | 7 kts | 345° |
| 2026-04-30 14:37 | 24.90339 | 67.16726 | 101 ft | 10 kts | 346° |
| 2026-04-30 14:37 | 24.90420 | 67.16704 | 101 ft | 14 kts | 342° |
| 2026-04-30 14:38 | 24.90491 | 67.16767 | 102 ft | 15 kts | 69° |
| 2026-04-30 14:38 | 24.90519 | 67.16869 | 102 ft | 13 kts | 73° |
| 2026-04-30 14:38 | 24.90544 | 67.16962 | 101 ft | 12 kts | 73° |
| 2026-04-30 14:38 | 24.90565 | 67.17044 | 102 ft | 10 kts | 75° |
| 2026-04-30 14:39 | 24.90582 | 67.17116 | 102 ft | 9 kts | 75° |
| 2026-04-30 14:39 | 24.90597 | 67.17177 | 102 ft | 8 kts | 75° |
| 2026-04-30 14:39 | 24.90610 | 67.17233 | 102 ft | 7 kts | 74° |
| 2026-04-30 14:40 | 24.90645 | 67.17358 | 102 ft | 10 kts | 72° |
| 2026-04-30 14:40 | 24.90685 | 67.17422 | 102 ft | 11 kts | 41° |
| 2026-04-30 14:40 | 24.90743 | 67.17461 | 103 ft | 4 kts | 30° |
| 2026-04-30 14:40 | 24.90766 | 67.17476 | 104 ft | 4 kts | 30° |
| 2026-04-30 14:41 | 24.90789 | 67.17489 | 105 ft | 4 kts | 19° |
| 2026-04-30 14:41 | 24.90810 | 67.17488 | 106 ft | 2 kts | 355° |
| 2026-04-30 14:41 | 24.90839 | 67.17479 | 106 ft | 7 kts | 329° |
| 2026-04-30 14:41 | 24.90866 | 67.17452 | 107 ft | 4 kts | 287° |
| 2026-04-30 14:42 | 24.90863 | 67.17434 | 107 ft | 0 kts | 254° |
| 2026-04-30 14:42 | 24.90856 | 67.17404 | 106 ft | 24 kts | 254° |
| 2026-04-30 14:42 | 24.90743 | 67.16968 | 108 ft | 92 kts | 254° |
| 2026-04-30 14:43 | 24.90518 | 67.16091 | 105 ft | 144 kts | 254° |
| 2026-04-30 14:43 | 24.90232 | 67.14908 | 361 ft | 165 kts | 253° |
| 2026-04-30 14:43 | 24.90091 | 67.13643 | 964 ft | 169 kts | 265° |
| 2026-04-30 14:43 | 24.90358 | 67.12399 | 1621 ft | 174 kts | 305° |
| 2026-04-30 14:44 | 24.91461 | 67.11742 | 2137 ft | 200 kts | 351° |
| 2026-04-30 14:44 | 24.92888 | 67.12185 | 2453 ft | 234 kts | 34° |
| 2026-04-30 14:44 | 24.94078 | 67.13528 | 2789 ft | 258 kts | 52° |
| 2026-04-30 14:44 | 24.95136 | 67.15178 | 3368 ft | 266 kts | 55° |
| 2026-04-30 14:45 | 24.96177 | 67.16874 | 4122 ft | 268 kts | 54° |
| 2026-04-30 14:45 | 24.97260 | 67.18555 | 4860 ft | 270 kts | 52° |
| 2026-04-30 14:45 | 24.98401 | 67.20211 | 5566 ft | 272 kts | 50° |
| 2026-04-30 14:45 | 24.99587 | 67.21841 | 6293 ft | 273 kts | 48° |
| 2026-04-30 14:46 | 25.00802 | 67.23454 | 6872 ft | 276 kts | 48° |
| 2026-04-30 14:46 | 25.02048 | 67.25076 | 6805 ft | 275 kts | 46° |
| 2026-04-30 14:46 | 25.03283 | 67.26666 | 6716 ft | 272 kts | 46° |
| 2026-04-30 14:46 | 25.04101 | 67.27716 | 6719 ft | 273 kts | 47° |
| 2026-04-30 14:47 | 25.05760 | 67.29843 | 6722 ft | 274 kts | 46° |
| 2026-04-30 14:47 | 25.07004 | 67.31441 | 6723 ft | 275 kts | 47° |
| 2026-04-30 14:47 | 25.08250 | 67.33043 | 6720 ft | 275 kts | 46° |
| 2026-04-30 14:47 | 25.09491 | 67.34638 | 6715 ft | 274 kts | 46° |
| 2026-04-30 14:48 | 25.10788 | 67.36176 | 6716 ft | 274 kts | 37° |
| 2026-04-30 14:48 | 25.12307 | 67.37569 | 6965 ft | 291 kts | 36° |
| 2026-04-30 14:48 | 25.13857 | 67.38991 | 7625 ft | 296 kts | 37° |
| 2026-04-30 14:48 | 25.15440 | 67.40452 | 8375 ft | 297 kts | 36° |
| 2026-04-30 14:49 | 25.17026 | 67.41920 | 9143 ft | 298 kts | 36° |
| 2026-04-30 14:49 | 25.18618 | 67.43397 | 9870 ft | 301 kts | 37° |
| 2026-04-30 14:49 | 25.20282 | 67.44934 | 10057 ft | 324 kts | 37° |
| 2026-04-30 14:49 | 25.22073 | 67.46582 | 10182 ft | 346 kts | 38° |
| 2026-04-30 14:50 | 25.25950 | 67.50143 | 10815 ft | 372 kts | 37° |
| 2026-04-30 14:50 | 25.27953 | 67.51974 | 11383 ft | 375 kts | 37° |
| 2026-04-30 14:51 | 25.32016 | 67.55686 | 12533 ft | 383 kts | 37° |
| 2026-04-30 14:51 | 25.34076 | 67.57571 | 13115 ft | 386 kts | 36° |
| 2026-04-30 14:51 | 25.37539 | 67.60738 | 14023 ft | 391 kts | 36° |
| 2026-04-30 14:52 | 25.39650 | 67.62670 | 14540 ft | 394 kts | 36° |
| 2026-04-30 14:52 | 25.44610 | 67.67216 | 15717 ft | 402 kts | 36° |
| 2026-04-30 14:52 | 25.46069 | 67.68552 | 16054 ft | 404 kts | 36° |
| 2026-04-30 14:53 | 25.50431 | 67.72553 | 17103 ft | 410 kts | 36° |
| 2026-04-30 14:53 | 25.52637 | 67.74582 | 17616 ft | 414 kts | 35° |
| 2026-04-30 14:54 | 25.57104 | 67.78687 | 18572 ft | 420 kts | 35° |
| 2026-04-30 14:54 | 25.61593 | 67.82816 | 19463 ft | 424 kts | 35° |
| 2026-04-30 14:55 | 25.66158 | 67.87019 | 20349 ft | 429 kts | 34° |
| 2026-04-30 14:55 | 25.68459 | 67.89137 | 20781 ft | 431 kts | 34° |
| 2026-04-30 14:55 | 25.73096 | 67.93407 | 21621 ft | 435 kts | 34° |
| 2026-04-30 14:56 | 25.77780 | 67.97728 | 22380 ft | 441 kts | 34° |
| 2026-04-30 14:56 | 25.82511 | 68.02105 | 23129 ft | 445 kts | 34° |
| 2026-04-30 14:57 | 25.84891 | 68.04311 | 23437 ft | 447 kts | 34° |
| 2026-04-30 14:57 | 25.89697 | 68.08761 | 23962 ft | 452 kts | 34° |
| 2026-04-30 14:58 | 25.94558 | 68.13265 | 24475 ft | 458 kts | 34° |
| 2026-04-30 14:58 | 25.97008 | 68.15535 | 24719 ft | 460 kts | 34° |
| 2026-04-30 14:58 | 26.01949 | 68.20116 | 25186 ft | 465 kts | 35° |
| 2026-04-30 14:59 | 26.06933 | 68.24749 | 25675 ft | 469 kts | 35° |
| 2026-04-30 15:00 | 26.14517 | 68.31811 | 26278 ft | 478 kts | 35° |
| 2026-04-30 15:00 | 26.19635 | 68.36578 | 26683 ft | 482 kts | 34° |
| 2026-04-30 15:01 | 26.24803 | 68.41299 | 27054 ft | 485 kts | 33° |
| 2026-04-30 15:01 | 26.27474 | 68.43594 | 27223 ft | 486 kts | 32° |
| 2026-04-30 15:01 | 26.32907 | 68.48112 | 27567 ft | 489 kts | 31° |
| 2026-04-30 15:02 | 26.35639 | 68.50380 | 27745 ft | 490 kts | 31° |
| 2026-04-30 15:02 | 26.38366 | 68.52671 | 27986 ft | 490 kts | 32° |
| 2026-04-30 15:03 | 26.46511 | 68.59619 | 28649 ft | 493 kts | 31° |
| 2026-04-30 15:03 | 26.51949 | 68.64285 | 29115 ft | 493 kts | 31° |
| 2026-04-30 15:04 | 26.57391 | 68.68955 | 29572 ft | 494 kts | 31° |
| 2026-04-30 15:04 | 26.65587 | 68.75962 | 30192 ft | 494 kts | 31° |
| 2026-04-30 15:05 | 26.73770 | 68.82915 | 30886 ft | 491 kts | 31° |
| 2026-04-30 15:06 | 26.79197 | 68.87539 | 31368 ft | 490 kts | 31° |
| 2026-04-30 15:06 | 26.84598 | 68.92156 | 31872 ft | 487 kts | 31° |
| 2026-04-30 15:07 | 26.89977 | 68.96758 | 32363 ft | 486 kts | 31° |
| 2026-04-30 15:07 | 26.95347 | 69.01358 | 32839 ft | 485 kts | 31° |
| 2026-04-30 15:08 | 27.00696 | 69.05943 | 33324 ft | 484 kts | 31° |
| 2026-04-30 15:08 | 27.08658 | 69.12797 | 33999 ft | 483 kts | 31° |
| 2026-04-30 15:09 | 27.14029 | 69.17415 | 34353 ft | 483 kts | 31° |
| 2026-04-30 15:09 | 27.19330 | 69.21970 | 34616 ft | 484 kts | 31° |
| 2026-04-30 15:10 | 27.24685 | 69.26580 | 34624 ft | 485 kts | 31° |
| 2026-04-30 15:11 | 27.40620 | 69.40725 | 34625 ft | 487 kts | 32° |
| 2026-04-30 15:13 | 27.53881 | 69.52580 | 34636 ft | 487 kts | 32° |
| 2026-04-30 15:14 | 27.72415 | 69.69205 | 34661 ft | 486 kts | 32° |
| 2026-04-30 15:17 | 27.96189 | 69.90630 | 34645 ft | 486 kts | 32° |
| 2026-04-30 15:19 | 28.17304 | 70.09766 | 34636 ft | 486 kts | 31° |